Nearby METAR Reports

 

KSLE - Salem, Oregon, USA
Distance from station: NE 1mi, 2km
Updated: Wed, 20-Oct-2021 10:56pm PDT
Mostly cloudy
Mostly cloudy
 Wind from calm
Wind: Calm
Temperature: 54°F , 12°C
Dew Point: 48°F , 9°C
Humidity: 82%
Barometer: 29.91 inHg , 1012.9 hPa
Clouds: Mostly cloudy
Visibility: 10 miles , 16 km
Cloud details: Mostly cloudy 10000 ft
2021/10/21 05:56 KSLE 210556Z AUTO 00000KT 10SM BKN100 12/09 A2991 RMK AO2 SLP130 60001 T01170094 10167 20111 56008
KMMV - Mcminnville, Oregon, USA
Distance from station: NNW 22mi, 36km
Updated: Wed, 20-Oct-2021 10:53pm PDT
Mostly cloudy
Mostly cloudy
 Wind from NW
Wind: NW 5 mph , 7 km/h
Temperature: 54°F , 12°C
Dew Point: 52°F , 11°C
Humidity: 94%
Barometer: 29.93 inHg , 1013.5 hPa
Clouds: Mostly cloudy
Visibility: 10 miles , 16 km
Cloud details: Mostly cloudy 11000 ft
2021/10/21 05:53 KMMV 210553Z AUTO 32004KT 10SM BKN110 12/11 A2993 RMK AO2 SLP133 60000 T01170106 10150 20111 58008
 
KUAO - Aurora, Oregon, USA
Distance from station: NNE 28mi, 45km
Updated: Wed, 20-Oct-2021 10:53pm PDT
Clear
Clear
 Wind from NNE
Wind: NNE 5 mph , 7 km/h
Temperature: 54°F , 12°C
Dew Point: 46°F , 8°C
Humidity: 77%
Barometer: 29.93 inHg , 1013.5 hPa
Clouds: Clear
Visibility: 10 miles , 16 km
2021/10/21 05:53 KUAO 210553Z AUTO 03004KT 10SM CLR 12/08 A2993 RMK AO2 SLP134 T01170083 10161 20111 58010
KCVO - Corvallis Muni A, Oregon, USA
Distance from station: SSW 29mi, 47km
Updated: Wed, 20-Oct-2021 10:56pm PDT
Overcast
Overcast
 Wind from W
Wind: W 3 mph , 6 km/h
Temperature: 52°F , 11°C
Dew Point: 50°F , 10°C
Humidity: 94%
Barometer: 29.93 inHg , 1013.5 hPa
Clouds: Overcast
Visibility: 10 miles , 16 km
Cloud details: Overcast 11000 ft
2021/10/21 05:56 KCVO 210556Z AUTO 27003KT 10SM OVC110 11/10 A2993 RMK AO2 SLP138 6//// T01060100 10144 20106 56009 PNO $
 
KHIO - Hillsboro/Portld, Oregon, USA
Distance from station: N 46mi, 74km
Updated: Wed, 20-Oct-2021 10:53pm PDT
Clear
Clear
 Wind from calm
Wind: Calm
Temperature: 48°F , 9°C
Dew Point: 48°F , 9°C
Humidity: 100%
Barometer: 29.93 inHg , 1013.5 hPa
Clouds: Clear
Visibility: 7 miles , 11 km
2021/10/21 05:53 KHIO 210553Z AUTO 00000KT 7SM CLR 09/09 A2993 RMK AO2 SLP136 60001 T00940094 10133 20089 58007